Data for 03/18/2013

Time Sea-Level Adjusted Pressure Absolute Pressure Temperature Relative Humidity Dew Point   
(mb) (inHg) (mb) (inHg) (C) (F) (%) (C) (F)
00:05 1013 29.91 843 24.89 -4.7 23.5 47 -14.4 6.1
00:10 1013 29.91 843 24.89 -4.7 23.6 46 -14.5 5.9
00:15 1014 29.94 843 24.89 -4.7 23.5 46 -14.5 5.8
00:20 1014 29.94 843 24.89 -4.8 23.4 47 -14.4 6.1
00:25 1014 29.94 843 24.89 -4.8 23.4 47 -14.5 6
00:30 1014 29.94 843 24.89 -4.8 23.4 47 -14.5 5.9
00:35 1014 29.94 843 24.89 -5 23.1 48 -14.4 6.1
00:40 1014 29.94 843 24.89 -5.1 22.7 49 -14.2 6.4
00:45 1014 29.94 843 24.89 -5.3 22.4 50 -14.2 6.4
00:50 1014 29.94 843 24.89 -5.4 22.3 50 -14.2 6.4
00:55 1014 29.94 843 24.89 -5.5 22.1 51 -14.2 6.5
01:00 1014 29.94 843 24.89 -5.6 21.9 51 -14.1 6.6
01:05 1014 29.94 843 24.89 -5.6 21.9 51 -14.2 6.4
01:10 1014 29.94 843 24.89 -5.5 22.1 51 -14.1 6.5
01:15 1014 29.94 843 24.89 -5.3 22.4 50 -14.1 6.6
01:20 1014 29.94 843 24.89 -5 22.9 50 -13.9 7
01:25 1014 29.94 843 24.89 -5.1 22.9 51 -13.8 7.2
01:30 1014 29.94 843 24.89 -5 23 50 -13.9 7
01:35 1014 29.94 843 24.89 -4.9 23.2 50 -13.9 7
01:40 1014 29.94 843 24.89 -4.8 23.4 50 -13.8 7.2
01:45 1014 29.94 843 24.89 -4.8 23.3 50 -13.7 7.4
01:50 1014 29.94 843 24.89 -4.8 23.4 49 -13.9 7
01:55 1014 29.94 843 24.89 -4.8 23.4 49 -14 6.8
02:00 1014 29.94 843 24.89 -4.7 23.5 49 -14 6.8
02:05 1014 29.94 843 24.89 -4.7 23.6 49 -13.9 6.9
02:10 1014 29.94 843 24.89 -4.7 23.5 49 -13.9 7
02:15 1014 29.94 843 24.89 -4.8 23.3 50 -13.8 7.1
02:20 1014 29.94 843 24.89 -4.9 23.2 49 -14.1 6.7
02:25 1014 29.94 843 24.89 -4.9 23.3 48 -14.3 6.2
02:30 1014 29.94 843 24.89 -4.8 23.3 48 -14.3 6.2
02:35 1014 29.94 843 24.89 -4.8 23.4 47 -14.5 5.9
02:40 1014 29.94 843 24.89 -4.5 23.8 45 -14.8 5.4
02:45 1014 29.94 843 24.89 -4.4 24.1 45 -14.5 5.9
02:50 1014 29.94 843 24.89 -4.4 24.1 45 -14.7 5.6
02:55 1014 29.94 843 24.89 -4.3 24.3 45 -14.7 5.6
03:00 1014 29.94 843 24.89 -4.2 24.4 44 -14.9 5.2
03:05 1014 29.94 843 24.89 -4.3 24.3 44 -14.8 5.3
03:10 1014 29.94 843 24.89 -4.3 24.2 44 -14.9 5.2
03:15 1014 29.94 843 24.89 -4.3 24.2 44 -14.9 5.2
03:20 1014 29.94 843 24.89 -4.4 24.1 44 -14.9 5.2
03:25 1014 29.94 843 24.89 -4.4 24.1 45 -14.5 5.8
03:30 1014 29.94 843 24.89 -4.5 23.9 46 -14.6 5.7
03:35 1014 29.94 843 24.89 -4.5 23.8 45 -14.7 5.6
03:40 1014 29.94 843 24.89 -4.4 24 44 -15 5
03:45 1014 29.94 843 24.89 -4.5 24 44 -14.9 5.2
03:50 1014 29.94 843 24.89 -4.6 23.8 44 -15 5
03:55 1014 29.94 843 24.89 -4.7 23.6 45 -14.9 5.2
04:00 1014 29.94 843 24.89 -4.7 23.5 44 -15.3 4.5
04:05 1014 29.94 843 24.89 -4.7 23.6 43 -15.6 4
04:10 1014 29.94 843 24.89 -4.8 23.4 47 -14.4 6.1
04:15 1014 29.94 843 24.89 -5.1 22.7 46 -15.1 4.9
04:20 1014 29.94 843 24.89 -5 23 44 -15.6 4
04:25 1014 29.94 843 24.89 -4.9 23.1 44 -15.4 4.4
04:30 1014 29.94 843 24.89 -4.9 23.3 43 -15.5 4.1
04:35 1014 29.94 843 24.89 -4.7 23.6 42 -15.7 3.7
04:40 1014 29.94 843 24.89 -4.6 23.7 42 -15.7 3.7
04:45 1014 29.94 843 24.89 -4.5 23.9 40 -16.1 2.9
04:50 1014 29.94 843 24.89 -4.3 24.2 41 -15.9 3.5
04:55 1014 29.94 843 24.89 -4.4 24.2 42 -15.6 4
05:00 1014 29.94 843 24.89 -4.5 23.9 43 -15.3 4.4
05:05 1014 29.94 843 24.89 -4.6 23.7 43 -15.5 4.1
05:10 1014 29.94 843 24.89 -4.5 23.9 42 -15.5 4.2
05:15 1014 29.94 843 24.89 -4.5 24 44 -15 4.9
05:20 1014 29.94 843 24.89 -4.5 23.9 44 -15.1 4.7
05:25 1014 29.94 843 24.89 -4.5 23.9 44 -14.9 5.1
05:30 1014 29.94 843 24.89 -4.5 23.9 45 -14.8 5.3
05:35 1014 29.94 843 24.89 -4.5 23.9 44 -15.1 4.9
05:40 1014 29.94 843 24.89 -4.5 23.9 44 -15 5
05:45 1014 29.94 843 24.89 -4.6 23.7 46 -14.6 5.8
05:50 1014 29.94 843 24.89 -4.7 23.6 47 -14.4 6
05:55 1014 29.94 843 24.89 -4.6 23.7 48 -14.1 6.7
06:00 1014 29.94 843 24.89 -4.5 23.9 47 -14.2 6.4
06:05 1014 29.94 843 24.89 -4.2 24.4 45 -14.4 6
06:10 1014 29.94 843 24.89 -4.1 24.6 46 -14.2 6.4
06:15 1014 29.94 843 24.89 -4.2 24.5 45 -14.3 6.2
06:20 1014 29.94 843 24.89 -4.2 24.5 46 -14.2 6.4
06:25 1014 29.94 843 24.89 -4.2 24.4 47 -13.9 6.9
06:30 1014 29.94 843 24.89 -4.3 24.3 47 -14 6.9
06:35 1014 29.94 843 24.89 -4.4 24.1 47 -14.2 6.4
06:40 1014 29.94 843 24.89 -4.5 23.9 47 -14.3 6.2
06:45 1014 29.94 843 24.89 -4.4 24 47 -14.2 6.4
06:50 1014 29.94 843 24.89 -4.4 24.1 47 -14.1 6.6
06:55 1014 29.94 843 24.89 -4.4 24.1 46 -14.2 6.4
07:00 1014 29.94 843 24.89 -4.3 24.2 46 -14.3 6.3
07:05 1014 29.94 843 24.89 -4.4 24.2 46 -14.4 6.1
07:10 1014 29.94 843 24.89 -4.4 24 46 -14.5 5.9
07:15 1014 29.94 843 24.89 -4.4 24 46 -14.4 6.1
07:20 1014 29.94 843 24.89 -4.5 23.9 48 -13.9 7.1
07:25 1014 29.94 843 24.89 -4.4 24 46 -14.4 6.2
07:30 1014 29.94 843 24.89 -4.3 24.2 46 -14.3 6.2
07:35 1014 29.94 843 24.89 -4.2 24.4 45 -14.4 6.1
07:40 1014 29.94 843 24.89 -4.1 24.7 44 -14.6 5.6
07:45 1014 29.94 843 24.89 -3.9 25 44 -14.5 5.9
07:50 1014 29.94 843 24.89 -3.8 25.2 42 -14.8 5.3
07:55 1014 29.94 843 24.89 -3.7 25.3 42 -14.8 5.3
08:00 1014 29.94 843 24.89 -3.6 25.5 41 -15.1 4.8
08:05 1014 29.94 843 24.89 -3.6 25.5 42 -14.8 5.4
08:10 1014 29.94 843 24.89 -3.5 25.7 41 -15 5
08:15 1014 29.94 843 24.89 -3.5 25.8 42 -14.7 5.6
08:20 1014 29.94 843 24.89 -3.4 25.9 41 -14.9 5.1
08:25 1014 29.94 843 24.89 -3.4 25.9 42 -14.7 5.5
08:30 1014 29.94 843 24.89 -3.3 26 41 -14.8 5.4
08:35 1014 29.94 843 24.89 -3.3 26.1 41 -14.8 5.3
08:40 1014 29.94 843 24.89 -3.3 26.1 41 -14.8 5.4
08:45 1014 29.94 843 24.89 -3.2 26.3 40 -15.1 4.9
08:50 1014 29.94 843 24.89 -3 26.5 40 -14.9 5.2
08:55 1014 29.94 843 24.89 -2.9 26.8 40 -14.8 5.4
09:00 1014 29.94 843 24.89 -2.6 27.2 37 -15.4 4.4
09:05 1014 29.94 843 24.89 -2.5 27.5 38 -14.9 5.2
09:10 1014 29.94 843 24.89 -2.4 27.8 38 -15 5
09:15 1014 29.94 843 24.89 -2.2 28.1 37 -15.2 4.7
09:20 1014 29.94 843 24.89 -2.3 27.9 37 -15 5
09:25 1014 29.94 843 24.89 -2.4 27.8 39 -14.5 5.9
09:30 1014 29.94 843 24.89 -2.5 27.5 40 -14.3 6.2
09:35 1014 29.94 843 24.89 -2.5 27.5 40 -14.3 6.3
09:40 1014 29.94 843 24.89 -2.5 27.5 41 -14.2 6.5
09:45 1014 29.94 843 24.89 -2.4 27.6 41 -14 6.8
09:50 1014 29.94 843 24.89 -2.2 28.1 41 -13.7 7.3
09:55 1014 29.94 843 24.89 -1.9 28.6 40 -13.8 7.2
10:00 1014 29.94 843 24.89 -1.8 28.8 39 -13.9 7
10:05 1014 29.94 843 24.89 -1.5 29.3 37 -14.6 5.8
10:10 1014 29.94 843 24.89 -1.2 29.9 36 -14.5 5.9
10:15 1014 29.94 843 24.89 -0.8 30.6 37 -13.9 7
10:20 1013 29.91 843 24.89 -0.8 30.5 34 -14.9 5.2
10:25 1013 29.91 843 24.89 -0.9 30.3 34 -15.1 4.9
10:30 1013 29.91 843 24.89 -0.9 30.3 33 -15.3 4.4
10:35 1013 29.91 843 24.89 -0.9 30.4 33 -15.4 4.3
10:40 1013 29.91 843 24.89 -0.8 30.6 33 -15 5
10:45 1013 29.91 842 24.86 -0.6 30.9 31 -15.8 3.6
10:50 1013 29.91 842 24.86 -0.7 30.7 34 -14.9 5.2
10:55 1013 29.91 842 24.86 -0.8 30.6 33 -15.2 4.6
11:00 1013 29.91 843 24.89 -0.8 30.5 33 -15.2 4.7
11:05 1013 29.91 843 24.89 -0.7 30.8 35 -14.3 6.3
11:10 1013 29.91 843 24.89 -0.4 31.3 33 -14.8 5.4
11:15 1013 29.91 843 24.89 -0.1 31.9 35 -13.7 7.3
11:20 1013 29.91 842 24.86 -0.1 31.9 33 -14.6 5.8
11:25 1013 29.91 842 24.86 -0.1 31.8 33 -14.6 5.8
11:30 1013 29.91 842 24.86 -0.1 31.8 33 -14.5 5.9
11:35 1013 29.91 842 24.86 0 32.1 31 -15 5
11:40 1013 29.91 842 24.86 -0 31.9 32 -14.9 5.3
11:45 1013 29.91 842 24.86 0.1 32.1 31 -15.3 4.5
11:50 1013 29.91 842 24.86 -0.1 31.9 32 -14.7 5.5
11:55 1013 29.91 842 24.86 0.1 32.1 32 -14.6 5.6
12:00 1013 29.91 842 24.86 0.3 32.5 32 -14.7 5.5
12:05 1013 29.91 842 24.86 0.2 32.4 31 -15.1 4.9
12:10 1013 29.91 842 24.86 0.4 32.8 31 -15 5
12:15 1013 29.91 842 24.86 0.7 33.2 33 -14 6.8
12:20 1013 29.91 842 24.86 0.8 33.5 31 -14.4 6.1
12:25 1013 29.91 842 24.86 0.9 33.6 28 -15.6 4
12:30 1013 29.91 842 24.86 0.8 33.4 28 -15.9 3.4
12:35 1013 29.91 842 24.86 0.8 33.5 29 -15.2 4.6
12:40 1013 29.91 842 24.86 1 33.8 31 -14.5 5.9
12:45 1012 29.88 842 24.86 1.1 34 31 -14.2 6.5
12:50 1012 29.88 842 24.86 1.4 34.6 29 -14.9 5.2
12:55 1012 29.88 842 24.86 1.5 34.7 30 -14.2 6.5
13:00 1012 29.88 841 24.83 1.5 34.7 30 -14.4 6.1
13:05 1012 29.88 841 24.83 1.5 34.6 30 -14.4 6.1
13:10 1012 29.88 841 24.83 1.4 34.5 30 -14.3 6.3
13:15 1012 29.88 841 24.83 1.4 34.5 30 -14.4 6.1
13:20 1012 29.88 841 24.83 1.4 34.5 29 -15 5
13:25 1012 29.88 841 24.83 1.7 35 30 -14.3 6.3
13:30 1012 29.88 841 24.83 1.9 35.4 31 -13.5 7.6
13:35 1012 29.88 841 24.83 2 35.6 30 -13.9 6.9
13:40 1012 29.88 841 24.83 2.3 36.1 29 -14.2 6.5
13:45 1012 29.88 841 24.83 2 35.6 31 -13.4 8
13:50 1012 29.88 841 24.83 2.2 36 30 -13.5 7.7
13:55 1012 29.88 841 24.83 2.6 36.6 28 -14.2 6.4
14:00 1012 29.88 841 24.83 2.4 36.3 30 -13.4 7.9
14:05 1012 29.88 841 24.83 2.1 35.7 33 -12.6 9.4
14:10 1012 29.88 841 24.83 1.9 35.3 37 -11.5 11.3
14:15 1012 29.88 841 24.83 1.9 35.5 34 -12.5 9.5
14:20 1012 29.88 841 24.83 1.8 35.3 34 -12.5 9.5
14:25 1012 29.88 841 24.83 1.8 35.2 37 -11.6 11.2
14:30 1012 29.88 841 24.83 1.7 35 36 -11.8 10.8
14:35 1012 29.88 841 24.83 1.8 35.2 36 -11.6 11.1
14:40 1012 29.88 841 24.83 1.8 35.3 34 -12.5 9.6
14:45 1012 29.88 841 24.83 1.8 35.2 33 -13 8.7
14:50 1012 29.88 841 24.83 1.8 35.3 33 -12.7 9.2
14:55 1012 29.88 841 24.83 1.8 35.2 32 -13.1 8.4
15:00 1012 29.88 841 24.83 1.3 34.3 33 -13.3 8.1
15:05 1012 29.88 841 24.83 1.2 34.1 35 -12.8 8.9
15:10 1012 29.88 841 24.83 1.3 34.4 35 -12.5 9.4
15:15 1012 29.88 841 24.83 1.3 34.3 30 -14.6 5.6
15:20 1012 29.88 841 24.83 1.6 34.8 29 -14.7 5.6
15:25 1012 29.88 841 24.83 1.9 35.4 28 -14.7 5.5
15:30 1012 29.88 841 24.83 2 35.6 28 -14.7 5.6
15:35 1012 29.88 841 24.83 1.9 35.4 29 -14.6 5.8
15:40 1012 29.88 841 24.83 2.3 36.2 28 -14.6 5.8
15:45 1012 29.88 841 24.83 2.5 36.5 28 -14.4 6.1
15:50 1012 29.88 841 24.83 2.1 35.8 29 -14.1 6.6
15:55 1012 29.88 841 24.83 2 35.7 28 -14.8 5.3
16:00 1012 29.88 841 24.83 1.9 35.5 28 -15 5.1
16:05 1012 29.88 841 24.83 1.8 35.3 30 -14.2 6.5
16:10 1012 29.88 841 24.83 1.6 34.9 32 -13.6 7.6
16:15 1012 29.88 841 24.83 1.5 34.6 32 -13.6 7.5
16:20 1012 29.88 841 24.83 1.4 34.4 32 -13.8 7.2
16:25 1012 29.88 841 24.83 1.4 34.5 32 -13.6 7.5
16:30 1012 29.88 841 24.83 1.4 34.6 33 -13.4 8
16:35 1012 29.88 841 24.83 1.4 34.4 33 -13.2 8.2
16:40 1012 29.88 841 24.83 1.3 34.4 33 -13.1 8.4
16:45 1012 29.88 841 24.83 1.1 34 35 -12.9 8.8
16:50 1012 29.88 841 24.83 0.8 33.5 35 -12.9 8.7
16:55 1012 29.88 842 24.86 0.7 33.3 34 -13.6 7.5
17:00 1012 29.88 842 24.86 0.7 33.3 31 -14.7 5.6
17:05 1012 29.88 842 24.86 0.9 33.6 30 -14.9 5.2
17:10 1012 29.88 842 24.86 1 33.9 29 -15.1 4.8
17:15 1012 29.88 842 24.86 1 33.8 30 -14.8 5.4
17:20 1012 29.88 842 24.86 1 33.7 30 -14.8 5.4
17:25 1013 29.91 842 24.86 0.9 33.6 31 -14.6 5.7
17:30 1013 29.91 842 24.86 0.8 33.5 30 -14.9 5.2
17:35 1013 29.91 842 24.86 0.7 33.3 29 -15.3 4.5
17:40 1013 29.91 842 24.86 0.6 33.1 31 -14.6 5.7
17:45 1013 29.91 842 24.86 0.6 33 33 -14.1 6.6
17:50 1013 29.91 842 24.86 0.5 32.9 34 -13.8 7.1
17:55 1013 29.91 842 24.86 0.4 32.7 36 -12.9 8.7
18:00 1013 29.91 842 24.86 0.3 32.5 37 -12.7 9.1
18:05 1013 29.91 842 24.86 0.2 32.4 37 -13 8.6
18:10 1013 29.91 842 24.86 0.3 32.5 34 -13.9 6.9
18:15 1013 29.91 842 24.86 0.3 32.5 35 -13.6 7.5
18:20 1013 29.91 842 24.86 0.2 32.3 36 -13.1 8.4
18:25 1013 29.91 842 24.86 0.1 32.1 38 -12.7 9.2
18:30 1013 29.91 842 24.86 -0.1 31.9 39 -12.4 9.7
18:35 1013 29.91 842 24.86 -0.2 31.7 40 -12.2 10
18:40 1013 29.91 842 24.86 -0.2 31.6 41 -12 10.5
18:45 1013 29.91 843 24.89 -0.3 31.4 41 -12 10.4
18:50 1013 29.91 843 24.89 -0.4 31.4 42 -11.8 10.7
18:55 1013 29.91 843 24.89 -0.5 31.1 42 -11.8 10.8
19:00 1013 29.91 843 24.89 -0.7 30.8 44 -11.4 11.4
19:05 1013 29.91 843 24.89 -0.8 30.6 45 -11.2 11.9
19:10 1014 29.94 843 24.89 -0.9 30.3 47 -10.8 12.5
19:15 1013 29.91 843 24.89 -1.3 29.6 49 -10.8 12.6
19:20 1014 29.94 843 24.89 -1.4 29.4 49 -10.9 12.4
19:25 1014 29.94 843 24.89 -1.4 29.5 48 -10.9 12.3
19:30 1014 29.94 843 24.89 -1.5 29.3 49 -11 12.3
19:35 1014 29.94 843 24.89 -1.6 29.2 48 -11.1 12
19:40 1014 29.94 843 24.89 -1.6 29.2 49 -10.9 12.3
19:45 1014 29.94 843 24.89 -1.5 29.4 49 -10.8 12.5
19:50 1014 29.94 843 24.89 -1.4 29.4 48 -11.1 12
19:55 1014 29.94 843 24.89 -1.3 29.6 47 -11.2 11.8
20:00 1014 29.94 843 24.89 -1.3 29.7 47 -11.2 11.8
20:05 1014 29.94 843 24.89 -1.3 29.7 46 -11.5 11.3
20:10 1014 29.94 843 24.89 -1.3 29.6 47 -11.3 11.6
20:15 1014 29.94 844 24.92 -1.4 29.5 48 -11.1 12
20:20 1014 29.94 844 24.92 -1.5 29.3 48 -11 12.2
20:25 1014 29.94 844 24.92 -1.6 29.2 48 -11.1 12
20:30 1014 29.94 844 24.92 -1.7 28.9 49 -11.1 12.1
20:35 1014 29.94 844 24.92 -1.9 28.6 52 -10.6 12.9
20:40 1014 29.94 844 24.92 -2.2 28.1 55 -10 14
20:45 1015 29.97 844 24.92 -2.4 27.7 58 -9.5 14.9
20:50 1015 29.97 844 24.92 -2.6 27.4 60 -9.3 15.3
20:55 1015 29.97 844 24.92 -2.6 27.3 61 -9.2 15.4
21:00 1014 29.94 844 24.92 -2.6 27.3 61 -9.1 15.6
21:05 1015 29.97 844 24.92 -2.7 27.2 60 -9.4 15.2
21:10 1015 29.97 844 24.92 -2.5 27.5 60 -9.2 15.4
21:15 1015 29.97 844 24.92 -2.4 27.6 60 -9.1 15.6
21:20 1015 29.97 844 24.92 -2.6 27.4 61 -9 15.7
21:25 1015 29.97 844 24.92 -2.8 26.9 64 -8.8 16.2
21:30 1015 29.97 844 24.92 -3 26.7 62 -9.2 15.5
21:35 1015 29.97 844 24.92 -2.9 26.8 60 -9.6 14.8
21:40 1015 29.97 844 24.92 -3 26.7 60 -9.6 14.7
21:45 1015 29.97 844 24.92 -2.9 26.7 60 -9.6 14.7
21:50 1015 29.97 844 24.92 -2.9 26.7 59 -9.8 14.3
21:55 1015 29.97 844 24.92 -2.8 26.9 59 -9.8 14.4
22:00 1015 29.97 844 24.92 -2.7 27.2 57 -10.1 13.9
22:05 1015 29.97 844 24.92 -2.5 27.4 57 -9.9 14.2
22:10 1015 29.97 844 24.92 -2.5 27.4 57 -9.9 14.2
22:15 1015 29.97 844 24.92 -2.6 27.3 57 -10.1 13.9
22:20 1015 29.97 844 24.92 -2.6 27.3 58 -9.8 14.4
22:25 1015 29.97 844 24.92 -2.8 27 56 -10.4 13.2
22:30 1015 29.97 844 24.92 -2.7 27.1 56 -10.3 13.4
22:35 1015 29.97 844 24.92 -2.7 27.2 59 -9.7 14.5
22:40 1015 29.97 844 24.92 -2.7 27.1 57 -10.2 13.7
22:45 1015 29.97 844 24.92 -2.6 27.3 55 -10.3 13.4
22:50 1015 29.97 844 24.92 -2.4 27.7 53 -10.8 12.6
22:55 1015 29.97 844 24.92 -2.1 28.2 52 -10.7 12.8
23:00 1015 29.97 845 24.95 -2 28.5 52 -10.6 12.8
23:05 1015 29.97 845 24.95 -1.9 28.5 59 -8.9 15.9
23:10 1016 30 845 24.95 -2.1 28.3 62 -8.5 16.8
23:15 1016 30 845 24.95 -2.7 27.2 79 -5.9 21.4
23:20 1016 30 845 24.95 -3.3 26 84 -5.6 21.9
23:25 1016 30 845 24.95 -3.6 25.5 86 -5.7 21.7
23:30 1016 30 845 24.95 -3.6 25.5 85 -5.8 21.6
23:35 1016 30 845 24.95 -3.6 25.5 84 -5.9 21.4
23:40 1016 30 845 24.95 -3.6 25.6 83 -6 21.2
23:45 1016 30 846 24.98 -3.6 25.5 85 -5.8 21.5
23:50 1016 30 846 24.98 -3.8 25.1 87 -5.7 21.7
23:55 1017 30.03 846 24.98 -4.1 24.6 89 -5.6 21.9
24:00 1017 30.03 846 24.98 -4.3 24.3 91 -5.5 22